Historique des mesures à Cassis (13260), France
Quotidien Résumé Mai 14, 2018 Unités:  Métrique    US   Métrique/US
« Précédent (Jour)
Suivant (Jour) »
Quotidien Hebdomadaire Mensuel Annuel Période au choix
  Maximum: Minimum: Moyenne:
Température: TemperatureC °C 8.4 °C 11 °C
Point de rosée: DewpointC °C 5.2 °C 6.8 °C
Humidité: Humidity % 67 % 72 %
Vitesse du vent: 0 km/h 0 km/h 19.2 km/h
Rafales: 0 km/h - -
Vent:- - SW
Pression: PressurehPa hPa 1006.7 hPa -
Précipitations: 5.6 mm    
Historical Graphs
 
 
Mesures pour : Mai 14, 2018
Heure Temperature Point de rosée Pression Vent Vitesse du vent Rafales Humidité Pluie (par heure) Conditions
TemperatureC °C DewpointC °C PressurehPa hPa Calm     Humidity % HourlyPrecipMM mm SoftwareType W/m2
00:11 9.3 °C 5.2 °C 1007.3 hPa NNE 18.7 km/h 43.5 km/h 76 % 0.0 mm open2300-1.11 W/m2
01:12 9.2 °C 5.3 °C 1007.3 hPa North 22 km/h 30.7 km/h 77 % 0.0 mm open2300-1.11 W/m2
02:11 9.0 °C 5.5 °C 1008.0 hPa WNW 17.9 km/h 20.3 km/h 79 % 0.0 mm open2300-1.11 W/m2
03:11 9.1 °C 5.8 °C 1007.3 hPa WNW 8 km/h 16.9 km/h 80 % 0.0 mm open2300-1.11 W/m2
04:11 8.7 °C 5.6 °C 1007.0 hPa NNE 27.7 km/h 27.7 km/h 81 % 1.0 mm open2300-1.11 W/m2
05:11 8.4 °C 5.5 °C 1006.7 hPa WNW 42.6 km/h 42.6 km/h 82 % 0.5 mm open2300-1.11 W/m2
06:11 8.4 °C 5.3 °C 1007.3 hPa WNW 29 km/h 29 km/h 81 % 1.5 mm open2300-1.11 W/m2
07:11 8.4 °C 5.7 °C 1007.3 hPa WSW 16.9 km/h 19.6 km/h 83 % 2.5 mm open2300-1.11 W/m2
08:11 8.9 °C 6.3 °C 1007.7 hPa NW 27.7 km/h 27.7 km/h 84 % 0.0 mm open2300-1.11 W/m2
09:11 9.9 °C 6.8 °C 1007.3 hPa NNW 19.2 km/h 27.7 km/h 81 % 0.0 mm open2300-1.11 W/m2
10:11 11.1 °C 6.8 °C 1007.3 hPa WNW 14.5 km/h 14.5 km/h 75 % 0.0 mm open2300-1.11 W/m2
11:10 12.1 °C 7.4 °C 1007.3 hPa North 26.2 km/h 33.6 km/h 73 % 0.0 mm open2300-1.11 W/m2
12:10 12.2 °C 7.1 °C 1008.0 hPa WNW 36.5 km/h 36.5 km/h 71 % 0.0 mm open2300-1.11 W/m2
13:10 12.6 °C 7.1 °C 1008.4 hPa WSW 9.8 km/h 33.6 km/h 69 % 0.0 mm open2300-1.11 W/m2
14:10 13.8 °C 7.9 °C 1008.4 hPa West 27.7 km/h 39.9 km/h 68 % 0.0 mm open2300-1.11 W/m2
15:10 14.6 °C 8.5 °C 1008.4 hPa West 25.4 km/h 31.9 km/h 67 % 0.0 mm open2300-1.11 W/m2
16:10 13.5 °C 7.9 °C 1009.0 hPa WSW 29.5 km/h 38.8 km/h 69 % 0.0 mm open2300-1.11 W/m2
17:10 14.3 °C 8.7 °C 1008.7 hPa NNW 20.3 km/h 58.6 km/h 69 % 0.0 mm open2300-1.11 W/m2
18:10 14.1 °C 8.9 °C 1009.0 hPa North 27.7 km/h 27.7 km/h 71 % 0.0 mm open2300-1.11 W/m2
19:10 13.6 °C 8.6 °C 1009.0 hPa WNW 13.2 km/h 16.3 km/h 72 % 0.0 mm open2300-1.11 W/m2
20:10 13.5 °C 8.9 °C 1009.7 hPa NW 4.2 km/h 8 km/h 74 % 0.0 mm open2300-1.11 W/m2
21:12 13.6 °C 9.2 °C 1009.7 hPa Calm     75 % 0.0 mm open2300-1.11 W/m2
22:11 13.2 °C 9.0 °C 1010.0 hPa Calm     76 % 0.0 mm open2300-1.11 W/m2
23:11 13.1 °C 8.2 °C 1010.4 hPa NW 14 km/h 14 km/h 72 % 0.0 mm open2300-1.11 W/m2
Observations météo à CASSIS
WU-History script by Weather Underground - 1 mb